Historyczne dane pomiarowe

Dodano dane terminowe – wersja testowa.

Dane z okresu 1951-2019

Wersja bazy: 1.34 [2019-03-16, lista zmian], aktualizacja planowana na 2019-04-15

Dane meteo z obszaru Polski uzyskane na podstawie danych udostępnionych przez Instytut Meteorologii i Gospodarki Wodnej – Państwowy Instytut Badawczy.

 

Wybierz Datę:    

       

TemperaturaWilgotnośćWiatrCiśnienieOpadyŚniegCzas trwania zjawisk
 Stacja t tx tn tng RH VA  wxwx mslp ppp RRR   cm mm wxwxwxwxwxwxwx
1961-02-14 6.3 8.4 3.9 1.6 89.8- 8.0 2.0---- 0.0------------
1961-02-15 7.2 14.7 -1.2 -2.7 82.3- 2.7 2.3---- 0.0------------
1961-02-16 7.1 9.1 6.3 4.0 90.3- 8.0 3.0---- 0.0------------
1961-02-17 4.7 11.0 1.8 4.6 85.5- 3.3 1.0---- 0.0------------
1961-02-18 4.5 13.0 -3.3 -6.8 85.0- 0.0 2.7---- 0.0------------
1961-02-19 5.8 7.0 2.6 1.3 93.3- 8.0 3.0---- 0.2------------
1961-02-20 4.8 7.0 4.2 4.4 90.0- 8.0 1.7---- 0.0------------
1961-02-21 2.5 9.2 -1.2 -4.7 86.8- 1.3 1.7---- 0.0------------
1961-02-22 1.4 9.8 -3.7 -7.3 85.3- 0.0 0.7---- 0.0------------
1961-02-23 2.3 4.0 -0.9 -5.1 90.5- 7.7 3.0---- 0.0------------
1961-02-24 3.9 7.8 0.2 -0.9 85.5- 5.3 3.0---- 0.0------------
1961-02-25 4.1 9.4 -0.1 -3.1 80.3- 1.7 2.0---- 0.0------------
1961-02-26 5.5 12.8 -1.0 -3.6 76.8- 1.0 3.7---- 0.0------------
1961-02-27 9.1 14.0 3.0 0.5 81.5- 7.7 4.0---- 1.2------------
1961-02-28 8.1 13.9 3.8 7.7 81.0- 8.0 5.0---- 1.4------------
1961-03-01 2.7 7.2 0.5- 90.8- 5.3 1.7---- 0.0------------
1961-03-02 4.8 7.1 0.0- 79.5- 8.0 4.7---- 3.2------------
1961-03-03 6.4 9.4 4.7- 91.0- 8.0 1.3---- 0.4------------
1961-03-04 6.0 11.0 1.9- 77.0- 3.0 2.7---- 0.0------------
1961-03-05 5.2 7.5 2.5- 93.8- 6.7 2.3---- 0.0------------
1961-03-06 4.8 10.7 -1.1- 94.0- 5.3 2.3---- 0.0------------
1961-03-07 8.4 15.2 2.1- 71.0- 3.7 2.7---- 0.0------------
1961-03-08 6.1 12.1 -1.7- 79.5- 0.0 2.3---- 0.0------------
1961-03-09 5.4 16.1 -0.5- 78.0- 0.3 1.3---- 0.0------------
1961-03-10 9.5 18.4 -2.5- 65.3- 0.0 1.7---- 0.0------------
1961-03-11 9.5 11.9 6.3- 78.8- 8.0 5.0---- 0.0------------
1961-03-12 12.3 15.6 7.2- 65.3- 7.3 9.7---- 0.7------------
1961-03-13 7.5 13.7 6.4- 64.8- 5.7 4.7---- 2.2------------
1961-03-14 10.3 12.0 6.2- 84.3- 7.7 6.7---- 0.1------------
1961-03-15 11.7 14.3 9.4- 74.3- 5.0 8.3---- 0.0------------
163.8 ms

 

Źródłem pochodzenia danych jest Instytut Meteorologii i Gospodarki Wodnej – Państwowy Instytut Badawczy. Dane Instytutu Meteorologii i Gospodarki Wodnej – Państwowego Instytutu Badawczego zostały przetworzone.

Dane źródłowe można odnaleźć na stronie https://dane.imgw.pl